Time;durP1;ratioP1;P1;durP2;ratioP2;P2;SDS_P1;SDS_P2;PMS_P1;PMS_P2;Temp;Humidity;BMP_temperature;BMP_pressure;BME280_temperature;BME280_humidity;BME280_pressure;Samples;Min_cycle;Max_cycle;Signal;HPM_P1;HPM_P2
2024/04/22 00:00:08;;;;;;;4.05;2.40;;;8.00;99.90;;;;;;4455009;26;20027;-59
2024/04/22 00:02:09;;;;;;;3.53;2.80;;;8.00;99.90;;;;;;4453254;26;20004;-60
2024/04/22 00:04:09;;;;;;;2.95;2.20;;;8.00;99.90;;;;;;4424187;26;20135;-60
2024/04/22 00:06:10;;;;;;;2.90;2.30;;;8.00;99.90;;;;;;4453636;26;20052;-59
2024/04/22 00:08:10;;;;;;;2.80;2.20;;;8.00;99.90;;;;;;4416812;26;20027;-60
2024/04/22 00:10:11;;;;;;;2.45;2.08;;;8.00;99.90;;;;;;4449925;26;20023;-62
2024/04/22 00:12:11;;;;;;;3.22;2.33;;;8.00;99.90;;;;;;4454127;26;20432;-59
2024/04/22 00:14:12;;;;;;;2.95;2.35;;;8.10;99.90;;;;;;4446868;26;20019;-59
2024/04/22 00:16:13;;;;;;;4.35;2.47;;;8.00;99.90;;;;;;4436617;26;20015;-60
2024/04/22 00:18:13;;;;;;;3.42;2.45;;;8.10;99.90;;;;;;4430532;26;20476;-59
2024/04/22 00:20:14;;;;;;;3.95;2.35;;;8.00;99.90;;;;;;4444488;26;21319;-59
2024/04/22 00:22:14;;;;;;;3.45;2.47;;;8.00;99.90;;;;;;4459516;26;20016;-59
2024/04/22 00:24:15;;;;;;;4.75;2.58;;;8.00;99.90;;;;;;4458635;26;20521;-60
2024/04/22 00:26:16;;;;;;;4.60;2.67;;;8.00;99.90;;;;;;4430251;26;20048;-59
2024/04/22 00:28:16;;;;;;;3.25;2.42;;;8.00;99.90;;;;;;4446714;26;20052;-59
2024/04/22 00:30:17;;;;;;;4.20;2.67;;;8.00;99.90;;;;;;4422997;26;20016;-60
2024/04/22 00:32:17;;;;;;;3.58;2.33;;;7.90;99.90;;;;;;4460105;26;20012;-59
2024/04/22 00:34:18;;;;;;;3.90;2.45;;;8.00;99.90;;;;;;4452606;26;20494;-60
2024/04/22 00:36:20;;;;;;;4.40;3.03;;;7.90;99.90;;;;;;4463558;26;19996;-60
2024/04/22 00:38:20;;;;;;;4.00;2.97;;;7.90;99.90;;;;;;4451356;26;20452;-60
2024/04/22 00:40:21;;;;;;;4.47;3.05;;;7.90;99.90;;;;;;4464038;26;20421;-59
2024/04/22 00:42:22;;;;;;;3.30;2.60;;;7.80;99.90;;;;;;4420097;26;20026;-60
2024/04/22 00:44:22;;;;;;;3.83;2.72;;;7.80;99.90;;;;;;4459401;26;20000;-59
2024/04/22 00:46:23;;;;;;;3.50;2.47;;;7.80;99.90;;;;;;4445884;26;20016;-59
2024/04/22 00:48:24;;;;;;;3.13;2.50;;;7.70;99.90;;;;;;4469042;26;20027;-59
2024/04/22 00:50:25;;;;;;;3.92;2.67;;;7.70;99.90;;;;;;4460620;26;20012;-59
2024/04/22 00:52:25;;;;;;;3.78;2.83;;;7.70;99.90;;;;;;4391910;26;20472;-59
2024/04/22 00:54:26;;;;;;;3.63;2.50;;;7.70;99.90;;;;;;4450494;26;20014;-59
2024/04/22 00:56:28;;;;;;;4.22;2.60;;;7.70;99.90;;;;;;4434078;26;20012;-59
2024/04/22 00:58:30;;;;;;;4.38;3.00;;;7.70;99.90;;;;;;4456935;26;20015;-60
2024/04/22 01:00:30;;;;;;;4.03;2.50;;;7.70;99.90;;;;;;4457610;26;20016;-59
2024/04/22 01:02:31;;;;;;;5.70;2.40;;;7.60;99.90;;;;;;4458188;26;20050;-59
2024/04/22 01:04:34;;;;;;;3.67;2.65;;;7.60;99.90;;;;;;4450842;26;20464;-59
2024/04/22 01:06:36;;;;;;;3.72;2.72;;;7.60;99.90;;;;;;4458093;26;20004;-60
2024/04/22 01:08:36;;;;;;;4.07;2.40;;;7.60;99.90;;;;;;4408939;26;20447;-60
2024/04/22 01:10:37;;;;;;;5.28;3.00;;;7.50;99.90;;;;;;4465198;26;20031;-67
2024/04/22 01:12:38;;;;;;;4.93;3.45;;;7.50;99.90;;;;;;4447630;26;20019;-68
2024/04/22 01:14:38;;;;;;;4.82;2.83;;;7.50;99.90;;;;;;4454899;26;20020;-67
2024/04/22 01:16:39;;;;;;;3.65;2.55;;;7.50;99.90;;;;;;4454853;26;20714;-66
2024/04/22 01:18:42;;;;;;;3.67;2.55;;;7.50;99.90;;;;;;4448256;26;20083;-67
2024/04/22 01:20:42;;;;;;;;;;;7.40;99.90;;;;;;4455913;26;20452;-67
2024/04/22 01:22:43;;;;;;;3.97;2.58;;;7.40;99.90;;;;;;4466850;26;19949;-67
2024/04/22 01:24:44;;;;;;;3.95;2.97;;;7.40;99.90;;;;;;4450283;26;20340;-67
2024/04/22 01:26:47;;;;;;;4.30;2.95;;;7.30;99.90;;;;;;4448780;26;20023;-67
2024/04/22 01:28:48;;;;;;;4.00;2.67;;;7.30;99.90;;;;;;4458941;26;20022;-67
2024/04/22 01:30:49;;;;;;;3.70;2.70;;;7.30;99.90;;;;;;4456918;26;20008;-67
2024/04/22 01:32:50;;;;;;;5.13;2.92;;;7.30;99.90;;;;;;4438463;26;20453;-67
2024/04/22 01:34:54;;;;;;;5.07;2.83;;;7.30;99.90;;;;;;4459913;26;20004;-67
2024/04/22 01:36:55;;;;;;;4.68;2.92;;;7.30;99.90;;;;;;4451270;26;20005;-67
2024/04/22 01:38:57;;;;;;;5.00;2.95;;;7.30;99.90;;;;;;4444207;26;20384;-67
2024/04/22 01:40:57;;;;;;;3.00;2.60;;;7.20;99.90;;;;;;4423593;26;20020;-67
2024/04/22 01:42:58;;;;;;;4.00;2.83;;;7.20;99.90;;;;;;4468073;26;20441;-67
2024/04/22 01:44:58;;;;;;;4.47;3.15;;;7.20;99.90;;;;;;4448800;26;20025;-67
2024/04/22 01:46:59;;;;;;;4.63;2.95;;;7.20;99.90;;;;;;4453985;26;20040;-67
2024/04/22 01:48:59;;;;;;;4.60;2.95;;;7.10;99.90;;;;;;4455816;26;20366;-67
2024/04/22 01:51:00;;;;;;;6.57;2.90;;;7.10;99.90;;;;;;4453946;26;20449;-67
2024/04/22 01:53:01;;;;;;;3.88;2.78;;;7.10;99.90;;;;;;4455683;26;20013;-67
2024/04/22 01:55:01;;;;;;;3.88;2.97;;;7.10;99.90;;;;;;4464860;26;20366;-67
2024/04/22 01:57:02;;;;;;;4.72;3.05;;;7.10;99.90;;;;;;4452441;26;20015;-67
2024/04/22 01:59:03;;;;;;;6.25;3.40;;;7.00;99.90;;;;;;4466123;26;20004;-67
2024/04/22 02:01:07;;;;;;;5.97;3.15;;;7.00;99.90;;;;;;4458397;26;20022;-67
2024/04/22 02:03:08;;;;;;;3.58;2.95;;;7.00;99.90;;;;;;4423333;26;20404;-67
2024/04/22 02:05:09;;;;;;;4.32;3.15;;;7.00;99.90;;;;;;4463153;26;20023;-67
2024/04/22 02:07:09;;;;;;;5.97;2.95;;;7.00;99.90;;;;;;4460451;26;20016;-67
2024/04/22 02:09:10;;;;;;;5.50;3.30;;;6.90;99.90;;;;;;4465094;26;19999;-66
2024/04/22 02:11:10;;;;;;;4.60;2.97;;;6.90;99.90;;;;;;4452518;26;20444;-67
2024/04/22 02:13:11;;;;;;;3.70;2.90;;;6.90;99.90;;;;;;4450330;26;20015;-67
2024/04/22 02:15:12;;;;;;;4.63;3.03;;;6.90;99.90;;;;;;4448484;26;20461;-68
2024/04/22 02:17:12;;;;;;;3.95;2.90;;;6.90;99.90;;;;;;4419197;26;20009;-67
2024/04/22 02:19:13;;;;;;;8.05;3.35;;;6.80;99.90;;;;;;4457460;26;20519;-67
2024/04/22 02:21:13;;;;;;;3.78;3.05;;;6.80;99.90;;;;;;4459475;26;20015;-63
2024/04/22 02:23:14;;;;;;;3.67;2.70;;;6.80;99.90;;;;;;4453310;26;20003;-63
2024/04/22 02:25:15;;;;;;;5.70;3.50;;;6.80;99.90;;;;;;4428177;26;20012;-63
2024/04/22 02:27:15;;;;;;;6.80;3.03;;;6.80;99.90;;;;;;4459160;26;20012;-64
2024/04/22 02:29:16;;;;;;;5.70;3.38;;;6.80;99.90;;;;;;4458650;26;20015;-63
2024/04/22 02:31:17;;;;;;;4.50;3.15;;;6.80;99.90;;;;;;4443878;26;20016;-63
2024/04/22 02:33:17;;;;;;;4.32;2.97;;;6.80;99.90;;;;;;4458945;26;20447;-63
2024/04/22 02:35:18;;;;;;;5.95;3.97;;;6.80;99.90;;;;;;4422457;26;20019;-63
2024/04/22 02:37:18;;;;;;;4.32;3.45;;;6.80;99.90;;;;;;4453607;26;20472;-63
2024/04/22 02:39:19;;;;;;;3.60;2.90;;;6.80;99.90;;;;;;4389896;26;20013;-63
2024/04/22 02:41:20;;;;;;;6.75;3.78;;;6.80;99.90;;;;;;4452053;26;20004;-63
2024/04/22 02:43:20;;;;;;;5.03;3.28;;;6.80;99.90;;;;;;4455388;26;20058;-63
2024/04/22 02:45:21;;;;;;;4.72;3.53;;;6.80;99.90;;;;;;4456282;26;20433;-63
2024/04/22 02:47:21;;;;;;;5.65;4.05;;;6.70;99.90;;;;;;4456976;26;20021;-63
2024/04/22 02:49:22;;;;;;;5.40;3.58;;;6.70;99.90;;;;;;4461051;26;20014;-63
2024/04/22 02:51:23;;;;;;;5.00;3.38;;;6.70;99.90;;;;;;4456059;26;20012;-63
2024/04/22 02:53:23;;;;;;;4.22;3.00;;;6.70;99.90;;;;;;4455342;26;20368;-63
2024/04/22 02:55:28;;;;;;;5.38;3.78;;;6.70;99.90;;;;;;4455516;26;20035;-63
2024/04/22 02:57:29;;;;;;;6.60;3.40;;;6.70;99.90;;;;;;4463736;26;22817;-63
2024/04/22 02:59:29;;;;;;;4.68;3.33;;;6.70;99.90;;;;;;4454354;26;20036;-63
2024/04/22 03:01:34;;;;;;;4.78;3.30;;;6.70;99.90;;;;;;4458567;26;20332;-63
2024/04/22 03:03:34;;;;;;;4.53;3.00;;;6.70;99.90;;;;;;4448351;26;20460;-63
2024/04/22 03:05:36;;;;;;;5.15;3.65;;;6.70;99.90;;;;;;4452861;26;20007;-63
2024/04/22 03:07:37;;;;;;;5.05;3.10;;;6.70;99.90;;;;;;4453571;26;20007;-63
2024/04/22 03:09:40;;;;;;;5.43;3.55;;;6.60;99.90;;;;;;4450982;26;20022;-63
2024/04/22 03:11:41;;;;;;;4.65;3.45;;;6.60;99.90;;;;;;4430718;26;20016;-64
2024/04/22 03:13:41;;;;;;;7.15;3.72;;;6.60;99.90;;;;;;4449629;26;20012;-64
2024/04/22 03:15:42;;;;;;;4.57;3.30;;;6.60;99.90;;;;;;4450033;26;20078;-63
2024/04/22 03:17:42;;;;;;;5.43;3.28;;;6.60;99.90;;;;;;4449336;26;20056;-63
2024/04/22 03:19:43;;;;;;;5.65;3.45;;;6.60;99.90;;;;;;4457991;26;20502;-63
2024/04/22 03:21:44;;;;;;;6.40;3.30;;;6.60;99.90;;;;;;4430599;26;20020;-63
2024/04/22 03:23:44;;;;;;;3.90;3.22;;;6.60;99.90;;;;;;4447368;26;20019;-63
2024/04/22 03:25:45;;;;;;;3.92;3.05;;;6.60;99.90;;;;;;4470984;26;20022;-64
2024/04/22 03:27:45;;;;;;;4.25;3.20;;;6.60;99.90;;;;;;4447734;26;20008;-63
2024/04/22 03:29:46;;;;;;;4.10;3.30;;;6.60;99.90;;;;;;4426071;26;20412;-67
2024/04/22 03:31:47;;;;;;;4.45;3.10;;;6.60;99.90;;;;;;4455440;26;20049;-64
2024/04/22 03:33:47;;;;;;;4.65;3.25;;;6.60;99.90;;;;;;4449383;26;20012;-64
2024/04/22 03:35:48;;;;;;;4.70;3.40;;;6.60;99.90;;;;;;4459488;26;20431;-63
2024/04/22 03:37:48;;;;;;;4.68;3.28;;;6.60;99.90;;;;;;4453725;26;20026;-63
2024/04/22 03:39:49;;;;;;;4.18;3.15;;;6.60;99.90;;;;;;4450215;26;20055;-63
2024/04/22 03:41:49;;;;;;;6.43;3.50;;;6.60;99.90;;;;;;4453217;26;20543;-64
2024/04/22 03:43:50;;;;;;;6.15;3.75;;;6.60;99.90;;;;;;4425887;26;20020;-63
2024/04/22 03:50:29;;;;;;;4.75;3.47;;;6.60;99.90;;;;;;4448717;26;20028;-63
2024/04/22 03:52:30;;;;;;;5.28;3.05;;;6.60;99.90;;;;;;4459421;26;20456;-63
2024/04/22 03:54:30;;;;;;;6.18;3.13;;;6.60;99.90;;;;;;4451504;26;20076;-63
2024/04/22 03:56:31;;;;;;;4.75;3.35;;;6.60;99.90;;;;;;4460261;26;20408;-63
2024/04/22 03:58:32;;;;;;;4.60;3.55;;;6.60;99.90;;;;;;4460817;26;20023;-63
2024/04/22 04:00:32;;;;;;;4.78;3.38;;;6.70;99.90;;;;;;4414665;26;20008;-63
2024/04/22 04:02:33;;;;;;;4.68;3.35;;;6.70;99.90;;;;;;4418827;26;20464;-63
2024/04/22 04:04:33;;;;;;;4.82;3.40;;;6.70;99.90;;;;;;4450527;26;20437;-63
2024/04/22 04:06:34;;;;;;;5.32;3.42;;;6.60;99.90;;;;;;4447055;26;20393;-63
2024/04/22 04:08:35;;;;;;;5.75;3.70;;;6.60;99.90;;;;;;4448276;26;20027;-63
2024/04/22 04:10:35;;;;;;;3.92;3.25;;;6.70;99.90;;;;;;4408662;26;20489;-63
2024/04/22 04:12:36;;;;;;;4.95;3.70;;;6.60;99.90;;;;;;4451747;26;20113;-63
2024/04/22 04:14:37;;;;;;;5.00;3.50;;;6.60;99.90;;;;;;4419813;26;20087;-63
2024/04/22 04:16:37;;;;;;;4.20;3.42;;;6.60;99.90;;;;;;4445499;26;19999;-63
2024/04/22 04:18:38;;;;;;;4.72;3.45;;;6.60;99.90;;;;;;4456665;26;20011;-63
2024/04/22 04:20:39;;;;;;;4.13;3.28;;;6.60;99.90;;;;;;4450374;26;20010;-63
2024/04/22 04:22:39;;;;;;;4.40;3.08;;;6.60;99.90;;;;;;4419289;26;20012;-65
2024/04/22 04:24:40;;;;;;;5.30;3.70;;;6.60;99.90;;;;;;4425341;26;20004;-64
2024/04/22 04:26:40;;;;;;;4.90;3.50;;;6.60;99.90;;;;;;4414601;26;20004;-64
2024/04/22 04:28:41;;;;;;;4.93;3.55;;;6.60;99.90;;;;;;4423766;26;20005;-65
2024/04/22 04:30:42;;;;;;;4.85;3.53;;;6.60;99.90;;;;;;4445544;26;20004;-64
2024/04/22 04:32:42;;;;;;;4.70;3.22;;;6.60;99.90;;;;;;4454526;26;20004;-64
2024/04/22 04:34:43;;;;;;;5.10;3.72;;;6.60;99.90;;;;;;4451976;26;20004;-63
2024/04/22 04:36:44;;;;;;;4.72;3.20;;;6.60;99.90;;;;;;4416936;26;20024;-64
2024/04/22 04:38:44;;;;;;;5.60;3.45;;;6.60;99.90;;;;;;4422147;26;20027;-64
2024/04/22 04:40:45;;;;;;;6.22;3.83;;;6.60;99.90;;;;;;4451892;26;20015;-67
2024/04/22 04:42:45;;;;;;;4.28;3.28;;;6.60;99.90;;;;;;4455554;26;20368;-67
2024/04/22 04:44:46;;;;;;;3.95;3.13;;;6.60;99.90;;;;;;4450295;26;20015;-68
2024/04/22 04:46:46;;;;;;;4.93;3.45;;;6.60;99.90;;;;;;4448743;26;20015;-68
2024/04/22 04:48:47;;;;;;;4.30;3.22;;;6.60;99.90;;;;;;4454350;26;20445;-68
2024/04/22 04:50:49;;;;;;;4.13;2.92;;;6.60;99.90;;;;;;4451964;26;20093;-67
2024/04/22 04:52:49;;;;;;;4.90;3.30;;;6.60;99.90;;;;;;4451104;26;20004;-67
2024/04/22 04:54:50;;;;;;;4.65;3.25;;;6.60;99.90;;;;;;4426105;26;20794;-68
2024/04/22 04:56:50;;;;;;;4.35;3.10;;;6.60;99.90;;;;;;4415916;26;20017;-64
2024/04/22 04:58:51;;;;;;;4.45;3.35;;;6.60;99.90;;;;;;4420708;26;20005;-64
2024/04/22 05:00:52;;;;;;;4.28;3.30;;;6.60;99.90;;;;;;4441897;26;20023;-65
2024/04/22 05:02:52;;;;;;;4.50;3.22;;;6.60;99.90;;;;;;4455872;26;20456;-65
2024/04/22 05:04:53;;;;;;;4.70;3.30;;;6.60;99.90;;;;;;4437829;26;20008;-65
2024/04/22 05:06:53;;;;;;;4.85;3.50;;;6.60;99.90;;;;;;4449605;26;20561;-65
2024/04/22 05:08:54;;;;;;;4.40;3.35;;;6.70;99.90;;;;;;4451147;26;20028;-65
2024/04/22 05:10:57;;;;;;;4.43;3.47;;;6.70;99.90;;;;;;4459142;26;20003;-65
2024/04/22 05:12:58;;;;;;;6.50;3.58;;;6.60;99.90;;;;;;4452329;26;20019;-65
2024/04/22 05:15:00;;;;;;;5.43;3.75;;;6.70;99.90;;;;;;4450487;26;20115;-65
2024/04/22 05:17:00;;;;;;;5.10;3.67;;;6.70;99.90;;;;;;4451170;26;20020;-65
2024/04/22 05:19:01;;;;;;;6.07;3.55;;;6.70;99.90;;;;;;4452290;26;20100;-64
2024/04/22 05:21:02;;;;;;;4.97;3.67;;;6.70;99.90;;;;;;4447257;26;20490;-65
2024/04/22 05:23:03;;;;;;;3.85;3.33;;;6.70;99.90;;;;;;4453938;26;20479;-64
2024/04/22 05:25:03;;;;;;;5.63;3.90;;;6.80;99.90;;;;;;4448844;26;20040;-66
2024/04/22 05:27:04;;;;;;;5.75;3.88;;;6.80;99.90;;;;;;4450952;26;20019;-64
2024/04/22 05:29:05;;;;;;;5.07;3.72;;;6.80;99.90;;;;;;4458717;26;20003;-64
2024/04/22 05:31:05;;;;;;;4.78;3.65;;;6.80;99.90;;;;;;4426054;26;20449;-62
2024/04/22 05:36:09;;;;;;;5.32;3.85;;;6.80;99.90;;;;;;4454256;26;20041;-65
2024/04/22 05:37:45;;;;;;;5.57;3.80;;;6.90;99.90;;;;;;4445147;26;20414;-65
2024/04/22 05:39:46;;;;;;;5.20;3.70;;;7.00;99.90;;;;;;4453071;26;20069;-65
2024/04/22 05:41:47;;;;;;;4.90;3.55;;;7.00;99.90;;;;;;4431122;26;20492;-65
2024/04/22 05:43:48;;;;;;;5.18;3.95;;;7.00;99.90;;;;;;4450719;26;20004;-65
2024/04/22 05:45:49;;;;;;;5.78;3.75;;;7.10;99.90;;;;;;4419400;26;20009;-64
2024/04/22 05:47:50;;;;;;;6.07;3.97;;;7.10;99.90;;;;;;4437434;26;20372;-65
2024/04/22 05:49:50;;;;;;;8.02;4.93;;;7.10;99.90;;;;;;4448775;26;20058;-65
2024/04/22 05:51:51;;;;;;;6.07;4.63;;;7.20;99.90;;;;;;4419228;26;20364;-60
2024/04/22 05:53:53;;;;;;;6.25;3.85;;;7.20;99.90;;;;;;4431514;26;20036;-59
2024/04/22 05:55:53;;;;;;;6.55;4.22;;;7.30;99.90;;;;;;4446917;26;20004;-60
2024/04/22 05:57:54;;;;;;;5.32;3.95;;;7.30;99.90;;;;;;4457839;26;20344;-60
2024/04/22 05:59:54;;;;;;;5.88;4.43;;;7.40;99.90;;;;;;4448248;26;20020;-59
2024/04/22 06:01:55;;;;;;;6.10;4.13;;;7.40;99.90;;;;;;4450391;26;20529;-59
2024/04/22 06:03:56;;;;;;;6.63;4.30;;;7.50;99.90;;;;;;4421949;26;20023;-59
2024/04/22 06:05:56;;;;;;;6.40;4.22;;;7.50;99.90;;;;;;4444857;26;20004;-59
2024/04/22 06:07:57;;;;;;;5.60;4.07;;;7.50;99.90;;;;;;4444372;26;20089;-59
2024/04/22 06:09:57;;;;;;;6.22;4.18;;;7.60;99.90;;;;;;4450538;26;20357;-59
2024/04/22 06:11:58;;;;;;;6.50;4.63;;;7.60;99.90;;;;;;4455902;26;20051;-60
2024/04/22 06:13:59;;;;;;;6.55;4.80;;;7.60;99.90;;;;;;4455568;26;20008;-60
2024/04/22 06:15:59;;;;;;;7.25;4.80;;;7.60;99.90;;;;;;4451830;26;20415;-60
2024/04/22 06:18:00;;;;;;;6.85;4.72;;;7.70;99.90;;;;;;4448583;26;20021;-60
2024/04/22 06:20:00;;;;;;;6.93;4.70;;;7.70;99.90;;;;;;4426440;26;20075;-60
2024/04/22 06:22:01;;;;;;;7.40;4.80;;;7.80;99.90;;;;;;4451249;26;20012;-60
2024/04/22 06:24:02;;;;;;;5.65;4.70;;;7.80;99.90;;;;;;4443544;26;20017;-60
2024/04/22 06:26:06;;;;;;;6.15;4.45;;;7.80;99.90;;;;;;4436380;26;20031;-59
2024/04/22 06:28:06;;;;;;;6.90;4.60;;;7.80;99.90;;;;;;4449450;26;20008;-59
2024/04/22 06:30:07;;;;;;;7.25;5.18;;;7.90;99.90;;;;;;4444557;26;20455;-60
2024/04/22 06:32:08;;;;;;;7.00;4.75;;;7.90;99.90;;;;;;4446538;26;20001;-60
2024/04/22 06:34:09;;;;;;;6.63;4.40;;;8.00;99.90;;;;;;4419967;26;20084;-59
2024/04/22 06:36:10;;;;;;;6.25;4.10;;;8.00;99.90;;;;;;4455010;26;20054;-60
2024/04/22 06:38:11;;;;;;;6.07;4.32;;;8.00;99.90;;;;;;4444669;26;20108;-59
2024/04/22 06:40:11;;;;;;;6.22;4.78;;;8.10;99.90;;;;;;4449756;26;20015;-59
2024/04/22 06:42:12;;;;;;;11.02;4.82;;;8.10;99.90;;;;;;4459964;26;20004;-63
2024/04/22 06:44:13;;;;;;;6.43;4.45;;;8.20;99.90;;;;;;4423897;26;20012;-62
2024/04/22 06:46:13;;;;;;;9.57;4.28;;;8.20;99.90;;;;;;4444751;26;20044;-60
2024/04/22 06:48:14;;;;;;;6.63;4.50;;;8.20;99.90;;;;;;4446720;26;20846;-60
2024/04/22 06:50:15;;;;;;;6.10;4.70;;;8.40;99.90;;;;;;4451097;26;20028;-59
2024/04/22 06:52:15;;;;;;;6.43;4.82;;;8.40;99.90;;;;;;4448551;26;20137;-59
2024/04/22 06:54:16;;;;;;;6.18;4.63;;;8.50;99.90;;;;;;4419957;26;20021;-60
2024/04/22 06:56:17;;;;;;;7.80;5.35;;;8.70;99.90;;;;;;4445775;26;20019;-59
2024/04/22 06:58:17;;;;;;;7.45;5.10;;;8.80;99.90;;;;;;4444779;26;20723;-59
2024/04/22 07:00:19;;;;;;;6.55;4.93;;;8.90;99.90;;;;;;4447419;26;20023;-60
2024/04/22 07:02:20;;;;;;;6.68;4.75;;;9.00;99.90;;;;;;4461469;26;20534;-60
2024/04/22 07:04:21;;;;;;;6.82;4.70;;;9.10;99.90;;;;;;4442430;26;20009;-59
2024/04/22 07:06:22;;;;;;;7.82;5.00;;;9.20;99.90;;;;;;4452389;26;20501;-59
2024/04/22 07:08:23;;;;;;;7.35;4.90;;;9.40;99.90;;;;;;4414240;26;20011;-59
2024/04/22 07:10:23;;;;;;;6.47;3.90;;;9.50;99.90;;;;;;4447780;26;20012;-59
2024/04/22 07:12:24;;;;;;;5.75;4.03;;;9.60;99.90;;;;;;4459670;26;20470;-60
2024/04/22 07:14:24;;;;;;;6.88;5.10;;;9.70;99.90;;;;;;4447986;26;20123;-59
2024/04/22 07:16:27;;;;;;;6.00;4.55;;;9.80;99.90;;;;;;4445611;26;20511;-59
2024/04/22 07:18:27;;;;;;;6.03;4.28;;;9.80;99.90;;;;;;4444844;26;20008;-59
2024/04/22 07:20:28;;;;;;;5.75;3.95;;;9.80;99.90;;;;;;4459453;26;20072;-59
2024/04/22 07:22:32;;;;;;;5.82;4.10;;;9.80;99.90;;;;;;4451971;26;20455;-60
2024/04/22 07:24:33;;;;;;;4.65;3.63;;;9.80;99.90;;;;;;4441866;26;20003;-60
2024/04/22 07:26:33;;;;;;;6.55;4.47;;;9.80;99.90;;;;;;4417201;26;20020;-59
2024/04/22 07:28:34;;;;;;;7.07;4.07;;;9.80;99.90;;;;;;4450694;26;20346;-59
2024/04/22 07:30:35;;;;;;;5.55;4.18;;;9.70;99.90;;;;;;4460885;26;20016;-60
2024/04/22 07:32:36;;;;;;;6.72;5.15;;;9.70;99.90;;;;;;4455748;26;20116;-60
2024/04/22 07:34:37;;;;;;;8.90;5.85;;;9.80;99.90;;;;;;4420826;26;20021;-59
2024/04/22 07:36:45;;;;;;;6.35;4.85;;;9.80;99.90;;;;;;4448024;26;20034;-60
2024/04/22 07:38:47;;;;;;;7.85;5.25;;;9.80;99.90;;;;;;4444799;26;20410;-59
2024/04/22 07:40:48;;;;;;;5.80;4.60;;;9.80;99.90;;;;;;4452721;26;20019;-60
2024/04/22 07:42:49;;;;;;;6.72;4.50;;;9.80;99.90;;;;;;4426587;26;20028;-60
2024/04/22 07:44:49;;;;;;;6.57;4.53;;;9.90;99.90;;;;;;4452137;26;20028;-60
2024/04/22 07:46:50;;;;;;;7.90;4.78;;;9.90;99.90;;;;;;4444734;26;20026;-60
2024/04/22 07:48:51;;;;;;;7.80;5.20;;;9.90;99.90;;;;;;4455482;26;20012;-59
2024/04/22 07:50:51;;;;;;;6.88;4.80;;;9.90;99.90;;;;;;4446013;26;20008;-60
2024/04/22 07:52:52;;;;;;;6.13;4.43;;;9.90;99.90;;;;;;4415407;26;20008;-60
2024/04/22 07:54:54;;;;;;;6.35;4.43;;;9.90;99.90;;;;;;4452227;26;20360;-59
2024/04/22 07:56:55;;;;;;;6.68;4.47;;;10.00;99.90;;;;;;4457238;26;20007;-60
2024/04/22 07:58:55;;;;;;;7.10;3.97;;;10.10;99.90;;;;;;4412100;26;20019;-60
2024/04/22 08:00:56;;;;;;;6.85;4.82;;;10.20;99.90;;;;;;4446822;26;20000;-60
2024/04/22 08:02:57;;;;;;;5.90;4.30;;;10.20;99.90;;;;;;4457338;26;20007;-59
2024/04/22 08:04:58;;;;;;;6.97;4.80;;;10.30;99.90;;;;;;4451289;26;20086;-59
2024/04/22 08:07:02;;;;;;;7.55;4.40;;;10.30;99.90;;;;;;4453328;26;20004;-60
2024/04/22 08:09:04;;;;;;;4.55;3.53;;;10.30;99.90;;;;;;4453129;26;20271;-59
2024/04/22 08:11:05;;;;;;;5.38;4.20;;;10.40;99.90;;;;;;4446988;26;20051;-59
2024/04/22 08:13:06;;;;;;;5.28;3.65;;;10.40;99.90;;;;;;4446495;26;20023;-60
2024/04/22 08:15:06;;;;;;;6.53;4.18;;;10.40;99.90;;;;;;4444951;26;20012;-60
2024/04/22 08:17:08;;;;;;;4.93;3.70;;;10.50;99.90;;;;;;4418747;26;20016;-60
2024/04/22 08:19:08;;;;;;;5.70;3.63;;;10.60;99.90;;;;;;4416388;26;20005;-59
2024/04/22 08:21:12;;;;;;;7.50;3.75;;;10.70;99.90;;;;;;4437104;26;20015;-59
2024/04/22 08:23:12;;;;;;;6.72;3.88;;;10.70;99.90;;;;;;4443498;26;20004;-59
2024/04/22 08:25:13;;;;;;;7.15;3.65;;;10.70;99.90;;;;;;4445152;26;20339;-59
2024/04/22 08:27:14;;;;;;;6.22;3.90;;;10.80;99.90;;;;;;4439898;26;20001;-62
2024/04/22 08:29:16;;;;;;;5.13;3.55;;;10.80;99.90;;;;;;4414736;26;20733;-61
2024/04/22 08:31:16;;;;;;;4.72;3.53;;;10.90;99.90;;;;;;4441972;26;20081;-63
2024/04/22 08:33:17;;;;;;;3.58;2.78;;;10.90;99.90;;;;;;4444362;26;20420;-61
2024/04/22 08:35:17;;;;;;;3.78;2.50;;;10.90;99.90;;;;;;4430459;26;20012;-59
2024/04/22 08:37:18;;;;;;;3.90;2.88;;;10.90;99.90;;;;;;4447677;26;20008;-60
2024/04/22 08:39:19;;;;;;;4.65;3.10;;;10.90;99.90;;;;;;4446974;26;20073;-60
2024/04/22 08:41:21;;;;;;;3.95;2.60;;;11.00;99.90;;;;;;4443935;26;20013;-59
2024/04/22 08:43:23;;;;;;;3.28;2.53;;;11.10;99.90;;;;;;4443101;26;20796;-60
2024/04/22 08:45:23;;;;;;;2.92;2.35;;;11.10;99.90;;;;;;4420627;26;20869;-60
2024/04/22 08:47:24;;;;;;;2.83;2.15;;;11.10;99.90;;;;;;4451271;26;20023;-59
2024/04/22 08:49:24;;;;;;;3.17;2.25;;;11.20;99.90;;;;;;4442924;26;20016;-59
2024/04/22 08:51:25;;;;;;;3.72;2.50;;;11.20;99.90;;;;;;4438349;26;20415;-59
2024/04/22 08:53:26;;;;;;;3.30;2.75;;;11.30;99.90;;;;;;4449790;26;20074;-59
2024/04/22 08:55:27;;;;;;;3.47;2.55;;;11.40;99.90;;;;;;4410720;26;20076;-59
2024/04/22 08:57:28;;;;;;;4.82;2.30;;;11.40;99.90;;;;;;4444012;26;20020;-59
2024/04/22 08:59:30;;;;;;;5.57;2.50;;;11.40;99.90;;;;;;4447850;26;20008;-59
2024/04/22 09:01:30;;;;;;;3.50;2.38;;;11.50;99.90;;;;;;4426537;26;20020;-59
2024/04/22 09:03:31;;;;;;;3.78;2.50;;;11.60;99.90;;;;;;4445625;26;20022;-59
2024/04/22 09:05:32;;;;;;;2.65;2.33;;;11.60;99.90;;;;;;4448303;26;20022;-59
2024/04/22 09:07:33;;;;;;;2.83;2.15;;;11.60;99.90;;;;;;4424162;26;20481;-59
2024/04/22 09:09:34;;;;;;;4.35;2.60;;;11.70;99.90;;;;;;4419715;26;20016;-59
2024/04/22 09:11:35;;;;;;;3.33;2.33;;;11.60;99.90;;;;;;4446655;26;20094;-59
2024/04/22 09:13:36;;;;;;;2.83;2.38;;;11.70;99.90;;;;;;4416955;26;20096;-59
2024/04/22 09:15:36;;;;;;;4.22;2.70;;;11.70;99.90;;;;;;4447196;26;20471;-59
2024/04/22 09:17:37;;;;;;;2.80;2.35;;;11.80;99.90;;;;;;4450342;26;22446;-59
2024/04/22 09:19:42;;;;;;;4.72;2.30;;;11.80;99.90;;;;;;4456017;26;20028;-72
2024/04/22 09:21:43;;;;;;;4.75;2.25;;;11.70;99.90;;;;;;4447886;26;20348;-67
2024/04/22 09:23:44;;;;;;;3.10;2.13;;;11.80;99.90;;;;;;4455177;26;20070;-67
2024/04/22 09:25:45;;;;;;;2.53;1.90;;;11.80;99.90;;;;;;4455727;26;20032;-67
2024/04/22 09:27:47;;;;;;;2.17;1.55;;;11.80;99.90;;;;;;4449096;26;20008;-66
2024/04/22 09:29:55;;;;;;;2.58;1.98;;;11.80;99.90;;;;;;4450202;26;20081;-66
2024/04/22 09:32:00;;;;;;;2.25;1.52;;;11.70;99.90;;;;;;4446936;26;20452;-66
2024/04/22 09:34:04;;;;;;;2.83;2.20;;;11.70;99.90;;;;;;4439779;26;20483;-67
2024/04/22 09:36:06;;;;;;;3.85;2.30;;;11.80;99.90;;;;;;4452433;26;20035;-67
2024/04/22 09:38:09;;;;;;;3.83;2.47;;;11.80;99.90;;;;;;4414795;26;20023;-67
2024/04/22 09:40:11;;;;;;;3.45;2.25;;;11.80;99.90;;;;;;4432481;26;20460;-67
2024/04/22 09:42:12;;;;;;;3.30;2.58;;;11.80;99.90;;;;;;4454191;26;20008;-67
2024/04/22 09:44:15;;;;;;;3.17;2.33;;;11.80;99.90;;;;;;4460139;26;20049;-67
2024/04/22 09:46:16;;;;;;;2.60;2.13;;;11.80;99.90;;;;;;4457222;26;20011;-67
2024/04/22 09:48:17;;;;;;;3.17;2.63;;;11.80;99.90;;;;;;4421873;26;20056;-66
2024/04/22 09:50:18;;;;;;;5.40;2.85;;;11.80;99.90;;;;;;4448556;26;20427;-67
2024/04/22 09:52:20;;;;;;;3.78;3.10;;;11.80;99.90;;;;;;4456388;26;20480;-66
2024/04/22 09:54:21;;;;;;;3.38;2.40;;;11.80;99.90;;;;;;4447460;26;20453;-67
2024/04/22 09:56:25;;;;;;;3.38;2.58;;;11.70;99.90;;;;;;4439871;26;20012;-67
2024/04/22 09:58:26;;;;;;;3.38;2.17;;;11.70;99.90;;;;;;4453842;26;20022;-66
2024/04/22 10:00:27;;;;;;;3.97;2.78;;;11.70;99.90;;;;;;4444978;26;20338;-67
2024/04/22 10:02:28;;;;;;;3.63;2.22;;;11.60;99.90;;;;;;4421596;26;20033;-67
2024/04/22 10:04:30;;;;;;;4.18;2.63;;;11.40;99.90;;;;;;4454871;26;20487;-66
2024/04/22 10:06:32;;;;;;;5.07;2.22;;;11.20;99.90;;;;;;4447622;26;20016;-67
2024/04/22 10:08:33;;;;;;;3.08;2.20;;;11.00;99.90;;;;;;4452562;26;20454;-67
2024/04/22 10:10:34;;;;;;;2.97;2.25;;;10.90;99.90;;;;;;4424655;26;20019;-67
2024/04/22 10:12:35;;;;;;;4.13;2.40;;;10.70;99.90;;;;;;4453493;26;21147;-67
2024/04/22 10:14:36;;;;;;;5.00;2.45;;;10.70;99.90;;;;;;4442536;26;20008;-67
2024/04/22 10:16:36;;;;;;;4.90;2.38;;;10.50;99.90;;;;;;4450642;26;20027;-69
2024/04/22 10:18:47;;;;;;;2.97;1.80;;;10.40;99.90;;;;;;4445747;26;20095;-66
2024/04/22 10:20:48;;;;;;;2.45;1.67;;;10.40;99.90;;;;;;4416298;26;20005;-66
2024/04/22 10:22:49;;;;;;;4.15;1.63;;;10.40;99.90;;;;;;4443790;26;20787;-66
2024/04/22 10:24:53;;;;;;;1.73;1.50;;;10.40;99.90;;;;;;4416251;26;20560;-65
2024/04/22 10:26:55;;;;;;;3.95;1.63;;;10.40;99.90;;;;;;4434240;26;20293;-67
2024/04/22 10:28:57;;;;;;;2.95;1.92;;;10.40;99.90;;;;;;4448063;26;20543;-67
2024/04/22 10:30:58;;;;;;;2.93;1.50;;;10.40;99.90;;;;;;4437721;26;20023;-72
2024/04/22 10:32:58;;;;;;;2.33;1.40;;;10.50;99.90;;;;;;4441799;26;20004;-72
2024/04/22 10:34:59;;;;;;;1.90;1.30;;;10.50;99.90;;;;;;4444721;26;20086;-73
2024/04/22 10:36:59;;;;;;;1.63;1.20;;;10.50;99.90;;;;;;4446547;26;20008;-73
2024/04/22 10:39:00;;;;;;;2.42;1.48;;;10.60;99.90;;;;;;4383536;26;20466;-72
2024/04/22 10:41:00;;;;;;;2.25;1.50;;;10.60;99.90;;;;;;4445941;26;20003;-73
2024/04/22 10:43:01;;;;;;;1.60;1.30;;;10.60;99.90;;;;;;4419492;26;20008;-73